Time,TemperatureF,DewpointF,PressureIn,WindDirection,WindDirectionDegrees,WindSpeedMPH,WindSpeedGustMPH,Humidity,HourlyPrecipIn,Conditions,Clouds,dailyrainin,SoftwareType,DateUTC
2013-02-15 00:04:00,31.7,22.4,30.13,WNW,301,10.0,16.0,68,0.00,CLR,,0.00,WeatherDisplay:10.37,2013-02-15 06:04:00,
2013-02-15 00:09:00,31.6,22.5,30.13,WNW,300,9.0,14.0,69,0.00,CLR,,0.00,WeatherDisplay:10.37,2013-02-15 06:09:00,
2013-02-15 00:14:00,31.3,22.6,30.13,WNW,300,9.0,14.0,70,0.00,CLR,,0.00,WeatherDisplay:10.37,2013-02-15 06:14:00,
2013-02-15 00:19:00,31.3,22.6,30.13,WNW,295,9.0,15.0,70,0.00,CLR,,0.00,WeatherDisplay:10.37,2013-02-15 06:19:00,
2013-02-15 00:24:00,31.3,22.6,30.13,WNW,296,9.0,14.0,70,0.00,CLR,,0.00,WeatherDisplay:10.37,2013-02-15 06:24:00,
2013-02-15 00:29:00,31.3,23.0,30.13,WNW,298,8.0,14.0,71,0.00,CLR,,0.00,WeatherDisplay:10.37,2013-02-15 06:29:00,
2013-02-15 00:39:00,31.5,23.1,30.14,WNW,298,12.0,18.0,71,0.00,CLR,,0.00,WeatherDisplay:10.37,2013-02-15 06:39:00,
2013-02-15 00:44:00,31.5,23.2,30.14,WNW,300,9.0,20.0,71,0.00,CLR,,0.00,WeatherDisplay:10.37,2013-02-15 06:44:00,
2013-02-15 00:49:00,31.3,23.3,30.15,NW,308,18.0,24.0,72,0.00,CLR,,0.00,WeatherDisplay:10.37,2013-02-15 06:49:00,
2013-02-15 00:54:00,30.0,22.7,30.16,NW,326,20.0,27.0,74,0.00,CLR,,0.00,WeatherDisplay:10.37,2013-02-15 06:54:00,
2013-02-15 00:59:00,29.4,21.8,30.16,NNW,340,22.0,27.0,73,0.00,CLR,,0.00,WeatherDisplay:10.37,2013-02-15 06:59:00,
2013-02-15 01:09:00,29.1,22.2,30.16,NNW,333,24.0,29.0,75,0.00,OVC,,0.00,WeatherDisplay:10.37,2013-02-15 07:09:00,
2013-02-15 01:14:00,28.9,22.3,30.17,NNW,329,18.0,26.0,76,0.00,OVC,,0.00,WeatherDisplay:10.37,2013-02-15 07:14:00,
2013-02-15 01:19:00,28.7,22.1,30.17,NNW,328,16.0,27.0,76,0.00,OVC,,0.00,WeatherDisplay:10.37,2013-02-15 07:19:00,
2013-02-15 01:24:00,28.7,21.8,30.17,NNW,331,18.0,23.0,75,0.00,OVC,,0.00,WeatherDisplay:10.37,2013-02-15 07:24:00,
2013-02-15 01:29:00,28.6,21.7,30.18,NNW,330,14.0,21.0,75,0.00,OVC,,0.00,WeatherDisplay:10.37,2013-02-15 07:29:00,
2013-02-15 01:39:00,28.5,21.6,30.19,NNW,328,15.0,22.0,75,0.00,OVC,,0.00,WeatherDisplay:10.37,2013-02-15 07:39:00,
2013-02-15 01:44:00,28.4,20.5,30.19,NW,326,17.0,24.0,72,0.00,OVC,,0.00,WeatherDisplay:10.37,2013-02-15 07:44:00,
2013-02-15 01:49:00,28.3,20.1,30.19,NW,325,15.0,24.0,71,0.00,OVC,,0.00,WeatherDisplay:10.37,2013-02-15 07:49:00,
2013-02-15 01:59:00,27.9,19.1,30.19,NW,325,12.0,17.0,69,0.00,OVC,,0.00,WeatherDisplay:10.37,2013-02-15 07:59:00,
2013-02-15 02:09:00,27.9,18.0,30.20,NNW,329,12.0,20.0,66,0.00,OVC,,0.00,WeatherDisplay:10.37,2013-02-15 08:09:00,
2013-02-15 02:14:00,27.9,17.3,30.20,NNW,331,14.0,20.0,64,0.00,OVC,,0.00,WeatherDisplay:10.37,2013-02-15 08:14:00,
2013-02-15 02:19:00,27.9,16.6,30.20,NNW,335,15.0,20.0,62,0.00,OVC,,0.00,WeatherDisplay:10.37,2013-02-15 08:19:00,
2013-02-15 02:24:00,27.9,15.5,30.21,NNW,335,14.0,20.0,59,0.00,OVC,,0.00,WeatherDisplay:10.37,2013-02-15 08:24:00,
2013-02-15 02:29:00,27.9,15.4,30.21,NNW,332,13.0,20.0,59,0.00,OVC,,0.00,WeatherDisplay:10.37,2013-02-15 08:29:00,
2013-02-15 02:39:00,27.8,15.3,30.22,NNW,328,12.0,17.0,59,0.00,OVC,,0.00,WeatherDisplay:10.37,2013-02-15 08:39:00,
2013-02-15 02:49:00,27.7,14.9,30.22,NW,325,9.0,17.0,58,0.00,OVC,,0.00,WeatherDisplay:10.37,2013-02-15 08:49:00,
2013-02-15 02:54:00,27.6,13.9,30.23,NNW,329,15.0,20.0,56,0.00,OVC,,0.00,WeatherDisplay:10.37,2013-02-15 08:54:00,
2013-02-15 02:59:00,27.3,13.7,30.23,NNW,333,15.0,21.0,56,0.00,OVC,,0.00,WeatherDisplay:10.37,2013-02-15 08:59:00,
2013-02-15 03:09:00,26.8,14.0,30.23,NNW,329,9.0,14.0,58,0.00,BKN,,0.00,WeatherDisplay:10.37,2013-02-15 09:09:00,
2013-02-15 03:14:00,26.4,14.4,30.23,NW,322,13.0,15.0,60,0.00,BKN,,0.00,WeatherDisplay:10.37,2013-02-15 09:14:00,
2013-02-15 03:19:00,25.8,14.6,30.23,NW,325,15.0,20.0,62,0.00,BKN,,0.00,WeatherDisplay:10.37,2013-02-15 09:19:00,
2013-02-15 03:24:00,25.4,14.6,30.23,NW,326,12.0,20.0,63,0.00,BKN,,0.00,WeatherDisplay:10.37,2013-02-15 09:24:00,
2013-02-15 03:29:00,25.1,14.6,30.23,NW,324,12.0,17.0,64,0.00,BKN,,0.00,WeatherDisplay:10.37,2013-02-15 09:29:00,
2013-02-15 03:39:00,24.4,15.3,30.24,NW,322,13.0,17.0,68,0.00,BKN,,0.00,WeatherDisplay:10.37,2013-02-15 09:39:00,
2013-02-15 03:44:00,24.0,15.3,30.24,NW,324,9.0,14.0,69,0.00,BKN,,0.00,WeatherDisplay:10.37,2013-02-15 09:44:00,
2013-02-15 03:49:00,23.7,15.3,30.24,NW,318,10.0,16.0,70,0.00,BKN,,0.00,WeatherDisplay:10.37,2013-02-15 09:49:00,
2013-02-15 03:54:00,23.4,15.7,30.25,NW,317,9.0,17.0,72,0.00,BKN,,0.00,WeatherDisplay:10.37,2013-02-15 09:54:00,
2013-02-15 03:59:00,23.0,15.6,30.24,NW,323,14.0,20.0,73,0.00,BKN,,0.00,WeatherDisplay:10.37,2013-02-15 09:59:00,
2013-02-15 04:04:00,22.7,15.7,30.25,NW,324,10.0,14.0,74,0.00,CLR,,0.00,WeatherDisplay:10.37,2013-02-15 10:04:00,
2013-02-15 04:09:00,22.4,15.4,30.25,NW,316,6.0,14.0,74,0.00,CLR,,0.00,WeatherDisplay:10.37,2013-02-15 10:09:00,
2013-02-15 04:14:00,22.0,15.3,30.25,NW,314,8.0,12.0,75,0.00,CLR,,0.00,WeatherDisplay:10.37,2013-02-15 10:14:00,
2013-02-15 04:19:00,21.7,15.0,30.26,NW,317,9.0,15.0,75,0.00,CLR,,0.00,WeatherDisplay:10.37,2013-02-15 10:19:00,
2013-02-15 04:29:00,21.2,14.5,30.26,NW,316,7.0,14.0,75,0.00,CLR,,0.00,WeatherDisplay:10.37,2013-02-15 10:29:00,
2013-02-15 04:39:00,20.6,13.9,30.27,NW,319,8.0,14.0,75,0.00,CLR,,0.00,WeatherDisplay:10.37,2013-02-15 10:39:00,
2013-02-15 04:49:00,20.1,13.1,30.27,NW,314,9.0,12.0,74,0.00,CLR,,0.00,WeatherDisplay:10.37,2013-02-15 10:49:00,
2013-02-15 04:54:00,19.9,12.9,30.27,NW,316,8.0,12.0,74,0.00,CLR,,0.00,WeatherDisplay:10.37,2013-02-15 10:54:00,
2013-02-15 04:59:00,19.8,12.8,30.28,NW,322,9.0,12.0,74,0.00,CLR,,0.00,WeatherDisplay:10.37,2013-02-15 10:59:00,
2013-02-15 05:09:00,19.4,12.8,30.28,NW,325,6.0,12.0,75,0.00,CLR,,0.00,WeatherDisplay:10.37,2013-02-15 11:09:00,
2013-02-15 05:14:00,19.3,12.7,30.28,NW,321,7.0,12.0,75,0.00,CLR,,0.00,WeatherDisplay:10.37,2013-02-15 11:14:00,
2013-02-15 05:19:00,19.2,12.6,30.28,NW,320,8.0,12.0,75,0.00,CLR,,0.00,WeatherDisplay:10.37,2013-02-15 11:19:00,
2013-02-15 05:24:00,19.0,12.4,30.28,NW,321,8.0,10.0,75,0.00,CLR,,0.00,WeatherDisplay:10.37,2013-02-15 11:24:00,
2013-02-15 05:29:00,18.8,12.2,30.28,NW,324,7.0,10.0,75,0.00,CLR,,0.00,WeatherDisplay:10.37,2013-02-15 11:29:00,
2013-02-15 05:34:00,18.6,12.0,30.28,NW,323,8.0,12.0,75,0.00,CLR,,0.00,WeatherDisplay:10.37,2013-02-15 11:34:00,
2013-02-15 05:39:00,18.5,11.9,30.28,NW,321,7.0,10.0,75,0.00,CLR,,0.00,WeatherDisplay:10.37,2013-02-15 11:39:00,
2013-02-15 05:44:00,18.3,11.7,30.28,NW,321,7.0,10.0,75,0.00,CLR,,0.00,WeatherDisplay:10.37,2013-02-15 11:44:00,
2013-02-15 05:49:00,18.1,11.8,30.28,NW,323,8.0,12.0,76,0.00,CLR,,0.00,WeatherDisplay:10.37,2013-02-15 11:49:00,
2013-02-15 05:54:00,18.0,11.4,30.28,NW,324,7.0,12.0,75,0.00,CLR,,0.00,WeatherDisplay:10.37,2013-02-15 11:54:00,
2013-02-15 05:59:00,17.9,11.3,30.28,NW,324,7.0,10.0,75,0.00,CLR,,0.00,WeatherDisplay:10.37,2013-02-15 11:59:00,
2013-02-15 06:09:00,17.5,11.2,30.29,NW,326,7.0,9.0,76,0.00,CLR,,0.00,WeatherDisplay:10.37,2013-02-15 12:09:00,
2013-02-15 06:14:00,17.5,11.2,30.29,NW,323,8.0,12.0,76,0.00,CLR,,0.00,WeatherDisplay:10.37,2013-02-15 12:14:00,
2013-02-15 06:19:00,17.3,10.8,30.29,NW,323,6.0,10.0,75,0.00,CLR,,0.00,WeatherDisplay:10.37,2013-02-15 12:19:00,
2013-02-15 06:24:00,17.2,10.6,30.29,NW,323,7.0,9.0,75,0.00,CLR,,0.00,WeatherDisplay:10.37,2013-02-15 12:24:00,
2013-02-15 06:29:00,17.0,10.4,30.29,NW,323,6.0,9.0,75,0.00,CLR,,0.00,WeatherDisplay:10.37,2013-02-15 12:29:00,
2013-02-15 06:39:00,16.5,10.3,30.30,NW,319,3.0,6.0,76,0.00,CLR,,0.00,WeatherDisplay:10.37,2013-02-15 12:39:00,
2013-02-15 06:44:00,16.3,10.1,30.30,NW,313,3.0,7.0,76,0.00,CLR,,0.00,WeatherDisplay:10.37,2013-02-15 12:44:00,
2013-02-15 06:49:00,16.3,10.1,30.31,NW,311,6.0,9.0,76,0.00,CLR,,0.00,WeatherDisplay:10.37,2013-02-15 12:49:00,
2013-02-15 06:54:00,16.4,9.8,30.31,NW,317,5.0,8.0,75,0.00,CLR,,0.00,WeatherDisplay:10.37,2013-02-15 12:54:00,
2013-02-15 06:59:00,16.3,9.8,30.31,NW,316,6.0,8.0,75,0.00,CLR,,0.00,WeatherDisplay:10.37,2013-02-15 12:59:00,
2013-02-15 07:04:00,16.3,9.7,30.31,NW,315,6.0,8.0,75,0.00,CLR,,0.00,WeatherDisplay:10.37,2013-02-15 13:04:00,
2013-02-15 07:09:00,16.3,9.5,30.31,NW,314,6.0,10.0,74,0.00,CLR,,0.00,WeatherDisplay:10.37,2013-02-15 13:09:00,
2013-02-15 07:14:00,16.3,9.5,30.32,NW,318,6.0,8.0,74,0.00,CLR,,0.00,WeatherDisplay:10.37,2013-02-15 13:14:00,
2013-02-15 07:19:00,16.2,9.4,30.32,NW,322,6.0,8.0,74,0.00,CLR,,0.00,WeatherDisplay:10.37,2013-02-15 13:19:00,
2013-02-15 07:24:00,16.2,9.4,30.32,NW,322,6.0,8.0,74,0.00,CLR,,0.00,WeatherDisplay:10.37,2013-02-15 13:24:00,
2013-02-15 07:29:00,16.3,9.5,30.32,NW,321,6.0,8.0,74,0.00,CLR,,0.00,WeatherDisplay:10.37,2013-02-15 13:29:00,
2013-02-15 07:39:00,16.3,9.5,30.32,NW,319,5.0,6.0,74,0.00,CLR,,0.00,WeatherDisplay:10.37,2013-02-15 13:39:00,
2013-02-15 07:44:00,16.5,9.7,30.32,NW,321,5.0,8.0,74,0.00,CLR,,0.00,WeatherDisplay:10.37,2013-02-15 13:44:00,
2013-02-15 07:49:00,16.7,9.8,30.32,NW,317,6.0,8.0,74,0.00,CLR,,0.00,WeatherDisplay:10.37,2013-02-15 13:49:00,
2013-02-15 07:54:00,16.9,9.7,30.33,NW,315,6.0,9.0,73,0.00,CLR,,0.00,WeatherDisplay:10.37,2013-02-15 13:54:00,
2013-02-15 07:59:00,17.1,9.9,30.33,NW,318,5.0,8.0,73,0.00,CLR,,0.00,WeatherDisplay:10.37,2013-02-15 13:59:00,
2013-02-15 08:09:00,17.6,10.5,30.33,NW,318,5.0,7.0,73,0.00,CLR,,0.00,WeatherDisplay:10.37,2013-02-15 14:09:00,
2013-02-15 08:14:00,18.0,10.5,30.33,NW,314,6.0,8.0,72,0.00,CLR,,0.00,WeatherDisplay:10.37,2013-02-15 14:14:00,
2013-02-15 08:19:00,18.3,10.5,30.33,NW,321,7.0,9.0,71,0.00,CLR,,0.00,WeatherDisplay:10.37,2013-02-15 14:19:00,
2013-02-15 08:24:00,18.6,10.8,30.34,NW,325,7.0,12.0,71,0.00,CLR,,0.00,WeatherDisplay:10.37,2013-02-15 14:24:00,
2013-02-15 08:29:00,19.0,10.8,30.33,NNW,328,7.0,12.0,70,0.00,CLR,,0.00,WeatherDisplay:10.37,2013-02-15 14:29:00,
2013-02-15 08:34:00,19.2,11.1,30.34,NW,325,7.0,13.0,70,0.00,CLR,,0.00,WeatherDisplay:10.37,2013-02-15 14:34:00,
2013-02-15 08:39:00,19.4,10.9,30.33,NNW,329,8.0,12.0,69,0.00,CLR,,0.00,WeatherDisplay:10.37,2013-02-15 14:39:00,
2013-02-15 08:44:00,19.6,10.8,30.33,NW,325,7.0,15.0,68,0.00,CLR,,0.00,WeatherDisplay:10.37,2013-02-15 14:44:00,
2013-02-15 08:49:00,19.9,11.0,30.33,NW,322,8.0,12.0,68,0.00,CLR,,0.00,WeatherDisplay:10.37,2013-02-15 14:49:00,
2013-02-15 08:54:00,20.3,11.4,30.34,NW,324,8.0,12.0,68,0.00,CLR,,0.00,WeatherDisplay:10.37,2013-02-15 14:54:00,
2013-02-15 08:59:00,20.5,10.6,30.34,NW,325,10.0,13.0,65,0.00,CLR,,0.00,WeatherDisplay:10.37,2013-02-15 14:59:00,
2013-02-15 09:04:00,20.8,10.8,30.34,NW,323,8.0,14.0,65,0.00,CLR,,0.00,WeatherDisplay:10.37,2013-02-15 15:04:00,
2013-02-15 09:09:00,20.9,10.3,30.34,NW,325,8.0,12.0,63,0.00,CLR,,0.00,WeatherDisplay:10.37,2013-02-15 15:09:00,
2013-02-15 09:14:00,21.2,10.6,30.34,NW,324,9.0,13.0,63,0.00,CLR,,0.00,WeatherDisplay:10.37,2013-02-15 15:14:00,
2013-02-15 09:19:00,21.4,10.8,30.34,NNW,327,8.0,12.0,63,0.00,CLR,,0.00,WeatherDisplay:10.37,2013-02-15 15:19:00,
2013-02-15 09:24:00,21.9,10.5,30.34,NW,323,8.0,12.0,61,0.00,CLR,,0.00,WeatherDisplay:10.37,2013-02-15 15:24:00,
2013-02-15 09:29:00,22.4,11.0,30.34,NW,314,7.0,12.0,61,0.00,CLR,,0.00,WeatherDisplay:10.37,2013-02-15 15:29:00,
2013-02-15 09:34:00,22.4,10.2,30.34,WNW,303,8.0,12.0,59,0.00,CLR,,0.00,WeatherDisplay:10.37,2013-02-15 15:34:00,
2013-02-15 09:39:00,22.7,10.1,30.34,NW,312,7.0,12.0,58,0.00,CLR,,0.00,WeatherDisplay:10.37,2013-02-15 15:39:00,
2013-02-15 09:44:00,23.2,10.2,30.34,NW,322,8.0,12.0,57,0.00,CLR,,0.00,WeatherDisplay:10.37,2013-02-15 15:44:00,
2013-02-15 09:49:00,23.8,10.0,30.33,NW,325,8.0,13.0,55,0.00,CLR,,0.00,WeatherDisplay:10.37,2013-02-15 15:49:00,
2013-02-15 09:54:00,24.0,8.9,30.33,NW,326,8.0,12.0,52,0.00,CLR,,0.00,WeatherDisplay:10.37,2013-02-15 15:54:00,
2013-02-15 09:59:00,25.1,10.3,30.33,NNW,327,8.0,14.0,53,0.00,CLR,,0.00,WeatherDisplay:10.37,2013-02-15 15:59:00,
2013-02-15 10:09:00,25.1,7.7,30.33,NNW,332,9.0,15.0,47,0.00,CLR,,0.00,WeatherDisplay:10.37,2013-02-15 16:09:00,
2013-02-15 10:14:00,25.7,8.6,30.33,NNW,327,7.0,13.0,48,0.00,CLR,,0.00,WeatherDisplay:10.37,2013-02-15 16:14:00,
2013-02-15 10:19:00,26.0,8.5,30.33,NW,311,8.0,12.0,47,0.00,CLR,,0.00,WeatherDisplay:10.37,2013-02-15 16:19:00,
2013-02-15 10:24:00,26.8,7.8,30.33,WNW,303,7.0,14.0,44,0.00,CLR,,0.00,WeatherDisplay:10.37,2013-02-15 16:24:00,
2013-02-15 10:29:00,27.2,7.6,30.33,NW,312,9.0,15.0,43,0.00,CLR,,0.00,WeatherDisplay:10.37,2013-02-15 16:29:00,
2013-02-15 10:39:00,27.6,6.4,30.33,NW,325,6.0,13.0,40,0.00,CLR,,0.00,WeatherDisplay:10.37,2013-02-15 16:39:00,
2013-02-15 10:44:00,28.0,4.5,30.33,NW,324,10.0,13.0,36,0.00,CLR,,0.00,WeatherDisplay:10.37,2013-02-15 16:44:00,
2013-02-15 10:49:00,28.0,4.5,30.33,NNW,329,8.0,12.0,36,0.00,CLR,,0.00,WeatherDisplay:10.37,2013-02-15 16:49:00,
2013-02-15 10:54:00,28.2,3.4,30.33,NW,325,9.0,15.0,34,0.00,CLR,,0.00,WeatherDisplay:10.37,2013-02-15 16:54:00,
2013-02-15 10:59:00,28.9,4.0,30.33,NW,323,10.0,14.0,34,0.00,CLR,,0.00,WeatherDisplay:10.37,2013-02-15 16:59:00,
2013-02-15 11:09:00,28.8,4.5,30.33,NW,309,9.0,15.0,35,0.00,CLR,,0.00,WeatherDisplay:10.37,2013-02-15 17:09:00,
2013-02-15 11:14:00,28.7,3.9,30.33,NW,311,7.0,14.0,34,0.00,CLR,,0.00,WeatherDisplay:10.37,2013-02-15 17:14:00,
2013-02-15 11:19:00,28.9,6.4,30.33,NW,314,8.0,13.0,38,0.00,CLR,,0.00,WeatherDisplay:10.37,2013-02-15 17:19:00,
2013-02-15 11:24:00,29.1,7.7,30.33,NW,324,9.0,15.0,40,0.00,CLR,,0.00,WeatherDisplay:10.37,2013-02-15 17:24:00,
2013-02-15 11:29:00,29.7,8.8,30.33,NNW,329,10.0,14.0,41,0.00,CLR,,0.00,WeatherDisplay:10.37,2013-02-15 17:29:00,
2013-02-15 11:39:00,29.9,8.5,30.32,NNW,329,10.0,13.0,40,0.00,CLR,,0.00,WeatherDisplay:10.37,2013-02-15 17:39:00,
2013-02-15 11:44:00,30.3,9.9,30.32,NW,322,8.0,14.0,42,0.00,CLR,,0.00,WeatherDisplay:10.37,2013-02-15 17:44:00,
2013-02-15 11:49:00,30.7,10.3,30.32,NW,322,9.0,13.0,42,0.00,CLR,,0.00,WeatherDisplay:10.37,2013-02-15 17:49:00,
2013-02-15 11:54:00,30.5,10.1,30.32,NW,317,8.0,12.0,42,0.00,CLR,,0.00,WeatherDisplay:10.37,2013-02-15 17:54:00,
2013-02-15 11:59:00,30.7,10.3,30.31,NW,312,12.0,17.0,42,0.00,CLR,,0.00,WeatherDisplay:10.37,2013-02-15 17:59:00,
2013-02-15 12:09:00,31.2,11.3,30.31,NW,308,7.0,16.0,43,0.00,CLR,,0.00,WeatherDisplay:10.37,2013-02-15 18:09:00,
2013-02-15 12:14:00,32.0,12.0,30.31,NW,319,10.0,18.0,43,0.00,CLR,,0.00,WeatherDisplay:10.37,2013-02-15 18:14:00,
2013-02-15 12:19:00,31.9,10.9,30.31,NW,320,13.0,17.0,41,0.00,CLR,,0.00,WeatherDisplay:10.37,2013-02-15 18:19:00,
2013-02-15 12:29:00,31.2,10.8,30.30,NW,312,5.0,12.0,42,0.00,CLR,,0.00,WeatherDisplay:10.37,2013-02-15 18:29:00,
2013-02-15 12:34:00,31.9,11.9,30.30,NW,307,9.0,12.0,43,0.00,CLR,,0.00,WeatherDisplay:10.37,2013-02-15 18:34:00,
2013-02-15 12:39:00,32.0,11.5,30.30,NW,304,9.0,13.0,42,0.00,CLR,,0.00,WeatherDisplay:10.37,2013-02-15 18:39:00,
2013-02-15 12:44:00,32.3,11.2,30.30,WNW,303,12.0,18.0,41,0.00,CLR,,0.00,WeatherDisplay:10.37,2013-02-15 18:44:00,
2013-02-15 12:49:00,32.5,11.9,30.29,NW,311,8.0,13.0,42,0.00,CLR,,0.00,WeatherDisplay:10.37,2013-02-15 18:49:00,
2013-02-15 12:54:00,32.6,10.9,30.29,NW,304,9.0,13.0,40,0.00,CLR,,0.00,WeatherDisplay:10.37,2013-02-15 18:54:00,
2013-02-15 12:59:00,32.6,12.0,30.29,WNW,302,9.0,16.0,42,0.00,CLR,,0.00,WeatherDisplay:10.37,2013-02-15 18:59:00,
2013-02-15 13:09:00,33.9,12.1,30.28,NW,320,10.0,17.0,40,0.00,CLR,,0.00,WeatherDisplay:10.37,2013-02-15 19:09:00,
2013-02-15 13:14:00,33.5,11.2,30.28,NW,318,12.0,18.0,39,0.00,CLR,,0.00,WeatherDisplay:10.37,2013-02-15 19:14:00,
2013-02-15 13:19:00,33.6,11.8,30.27,NW,318,9.0,16.0,40,0.00,CLR,,0.00,WeatherDisplay:10.37,2013-02-15 19:19:00,
2013-02-15 13:24:00,33.9,11.5,30.28,NW,314,13.0,18.0,39,0.00,CLR,,0.00,WeatherDisplay:10.37,2013-02-15 19:24:00,
2013-02-15 13:29:00,34.2,11.8,30.27,NW,311,9.0,17.0,39,0.00,CLR,,0.00,WeatherDisplay:10.37,2013-02-15 19:29:00,
2013-02-15 13:39:00,34.3,11.3,30.27,NW,314,10.0,17.0,38,0.00,CLR,,0.00,WeatherDisplay:10.37,2013-02-15 19:39:00,
2013-02-15 13:44:00,34.6,11.6,30.27,NW,324,8.0,17.0,38,0.00,CLR,,0.00,WeatherDisplay:10.37,2013-02-15 19:44:00,
2013-02-15 13:49:00,34.5,10.3,30.26,NNW,327,10.0,17.0,36,0.00,CLR,,0.00,WeatherDisplay:10.37,2013-02-15 19:49:00,
2013-02-15 13:54:00,34.3,10.7,30.26,NNW,330,9.0,13.0,37,0.00,CLR,,0.00,WeatherDisplay:10.37,2013-02-15 19:54:00,
2013-02-15 13:59:00,34.6,9.7,30.26,NW,322,13.0,17.0,35,0.00,CLR,,0.00,WeatherDisplay:10.37,2013-02-15 19:59:00,
2013-02-15 14:09:00,35.1,10.1,30.26,NW,310,14.0,22.0,35,0.00,BKN,,0.00,WeatherDisplay:10.37,2013-02-15 20:09:00,
2013-02-15 14:14:00,35.4,11.7,30.26,WNW,303,10.0,20.0,37,0.00,BKN,,0.00,WeatherDisplay:10.37,2013-02-15 20:14:00,
2013-02-15 14:19:00,35.5,9.9,30.26,NW,309,13.0,20.0,34,0.00,BKN,,0.00,WeatherDisplay:10.37,2013-02-15 20:19:00,
2013-02-15 14:24:00,35.3,9.7,30.25,NW,310,8.0,20.0,34,0.00,BKN,,0.00,WeatherDisplay:10.37,2013-02-15 20:24:00,
2013-02-15 14:29:00,34.7,9.8,30.26,NW,305,12.0,20.0,35,0.00,BKN,,0.00,WeatherDisplay:10.37,2013-02-15 20:29:00,
2013-02-15 14:39:00,34.8,9.9,30.26,NW,307,7.0,12.0,35,0.00,BKN,,0.00,WeatherDisplay:10.37,2013-02-15 20:39:00,
2013-02-15 14:44:00,34.9,8.7,30.26,NW,313,10.0,16.0,33,0.00,BKN,,0.00,WeatherDisplay:10.37,2013-02-15 20:44:00,
2013-02-15 14:49:00,34.7,8.4,30.26,NW,322,9.0,16.0,33,0.00,BKN,,0.00,WeatherDisplay:10.37,2013-02-15 20:49:00,
2013-02-15 14:54:00,34.7,8.5,30.26,NW,323,8.0,15.0,33,0.00,BKN,,0.00,WeatherDisplay:10.37,2013-02-15 20:54:00,
2013-02-15 14:59:00,34.8,8.6,30.26,NW,319,7.0,13.0,33,0.00,BKN,,0.00,WeatherDisplay:10.37,2013-02-15 20:59:00,
2013-02-15 15:09:00,34.8,8.6,30.26,NW,317,12.0,15.0,33,0.00,BKN,,0.00,WeatherDisplay:10.37,2013-02-15 21:09:00,
2013-02-15 15:14:00,34.9,9.3,30.26,NW,318,9.0,13.0,34,0.00,BKN,,0.00,WeatherDisplay:10.37,2013-02-15 21:14:00,
2013-02-15 15:19:00,35.0,9.4,30.25,NW,313,10.0,13.0,34,0.00,BKN,,0.00,WeatherDisplay:10.37,2013-02-15 21:19:00,
2013-02-15 15:24:00,34.8,9.2,30.26,WNW,302,8.0,17.0,34,0.00,BKN,,0.00,WeatherDisplay:10.37,2013-02-15 21:24:00,
2013-02-15 15:29:00,34.9,8.7,30.25,NW,307,10.0,15.0,33,0.00,BKN,,0.00,WeatherDisplay:10.37,2013-02-15 21:29:00,
2013-02-15 15:39:00,35.1,9.5,30.25,WNW,300,12.0,18.0,34,0.00,BKN,,0.00,WeatherDisplay:10.37,2013-02-15 21:39:00,
2013-02-15 15:44:00,35.4,9.8,30.25,WNW,301,9.0,15.0,34,0.00,BKN,,0.00,WeatherDisplay:10.37,2013-02-15 21:44:00,
2013-02-15 15:49:00,35.6,9.3,30.25,WNW,298,10.0,16.0,33,0.00,BKN,,0.00,WeatherDisplay:10.37,2013-02-15 21:49:00,
2013-02-15 15:54:00,35.8,10.1,30.25,NW,310,12.0,16.0,34,0.00,BKN,,0.00,WeatherDisplay:10.37,2013-02-15 21:54:00,
2013-02-15 15:59:00,35.3,9.0,30.25,NW,317,8.0,14.0,33,0.00,BKN,,0.00,WeatherDisplay:10.37,2013-02-15 21:59:00,
2013-02-15 16:09:00,35.4,10.4,30.25,NW,313,8.0,12.0,35,0.00,BKN,,0.00,WeatherDisplay:10.37,2013-02-15 22:09:00,
2013-02-15 16:14:00,35.2,10.3,30.25,WNW,303,9.0,13.0,35,0.00,BKN,,0.00,WeatherDisplay:10.37,2013-02-15 22:14:00,
2013-02-15 16:19:00,35.1,9.5,30.25,NW,304,10.0,16.0,34,0.00,BKN,,0.00,WeatherDisplay:10.37,2013-02-15 22:19:00,
2013-02-15 16:24:00,34.9,10.0,30.25,NW,315,8.0,13.0,35,0.00,BKN,,0.00,WeatherDisplay:10.37,2013-02-15 22:24:00,
2013-02-15 16:29:00,34.5,10.3,30.25,NNW,327,8.0,13.0,36,0.00,BKN,,0.00,WeatherDisplay:10.37,2013-02-15 22:29:00,
2013-02-15 16:39:00,34.3,10.1,30.25,NW,324,6.0,9.0,36,0.00,BKN,,0.00,WeatherDisplay:10.37,2013-02-15 22:39:00,
2013-02-15 16:44:00,34.6,10.3,30.25,NW,324,8.0,10.0,36,0.00,BKN,,0.00,WeatherDisplay:10.37,2013-02-15 22:44:00,
2013-02-15 16:49:00,34.5,10.2,30.25,NNW,333,8.0,12.0,36,0.00,BKN,,0.00,WeatherDisplay:10.37,2013-02-15 22:49:00,
2013-02-15 16:54:00,34.0,10.5,30.25,NNW,336,6.0,12.0,37,0.00,BKN,,0.00,WeatherDisplay:10.37,2013-02-15 22:54:00,
2013-02-15 16:59:00,34.0,10.4,30.25,NNW,333,5.0,6.0,37,0.00,BKN,,0.00,WeatherDisplay:10.37,2013-02-15 22:59:00,
2013-02-15 17:09:00,33.7,10.8,30.24,NNW,336,5.0,6.0,38,0.00,BKN,,0.00,WeatherDisplay:10.37,2013-02-15 23:09:00,
2013-02-15 17:14:00,33.5,11.1,30.25,North,355,5.0,7.0,39,0.00,BKN,,0.00,WeatherDisplay:10.37,2013-02-15 23:14:00,
2013-02-15 17:19:00,33.1,11.9,30.25,NNE,22,7.0,9.0,41,0.00,BKN,,0.00,WeatherDisplay:10.37,2013-02-15 23:19:00,
2013-02-15 17:24:00,32.6,12.6,30.25,NNE,33,5.0,9.0,43,0.00,BKN,,0.00,WeatherDisplay:10.37,2013-02-15 23:24:00,
2013-02-15 17:29:00,32.3,12.8,30.24,NNE,31,5.0,7.0,44,0.00,BKN,,0.00,WeatherDisplay:10.37,2013-02-15 23:29:00,
2013-02-15 17:39:00,32.0,12.5,30.24,NE,35,5.0,7.0,44,0.00,BKN,,0.00,WeatherDisplay:10.37,2013-02-15 23:39:00,
2013-02-15 17:44:00,31.8,12.3,30.24,NE,36,3.0,5.0,44,0.00,BKN,,0.00,WeatherDisplay:10.37,2013-02-15 23:44:00,
2013-02-15 17:49:00,31.5,12.5,30.24,NE,36,2.0,4.0,45,0.00,BKN,,0.00,WeatherDisplay:10.37,2013-02-15 23:49:00,
2013-02-15 17:59:00,31.0,12.6,30.24,NE,36,2.0,3.0,46,0.00,BKN,,0.00,WeatherDisplay:10.37,2013-02-15 23:59:00,
2013-02-15 18:09:00,30.7,12.8,30.24,NE,36,1.0,2.0,47,0.00,OVC,,0.00,WeatherDisplay:10.37,2013-02-16 00:09:00,
2013-02-15 18:14:00,30.5,13.1,30.24,NE,36,1.0,3.0,48,0.00,OVC,,0.00,WeatherDisplay:10.37,2013-02-16 00:14:00,
2013-02-15 18:19:00,30.5,13.1,30.24,NE,36,1.0,3.0,48,0.00,OVC,,0.00,WeatherDisplay:10.37,2013-02-16 00:19:00,
2013-02-15 18:24:00,30.5,13.1,30.24,NE,36,1.0,3.0,48,0.00,OVC,,0.00,WeatherDisplay:10.37,2013-02-16 00:24:00,
2013-02-15 18:29:00,30.4,13.0,30.24,NE,36,2.0,3.0,48,0.00,OVC,,0.00,WeatherDisplay:10.37,2013-02-16 00:29:00,
2013-02-15 18:39:00,30.5,13.1,30.23,NE,36,2.0,3.0,48,0.00,OVC,,0.00,WeatherDisplay:10.37,2013-02-16 00:39:00,
2013-02-15 18:44:00,30.4,13.0,30.23,NE,36,2.0,5.0,48,0.00,OVC,,0.00,WeatherDisplay:10.37,2013-02-16 00:44:00,
2013-02-15 18:49:00,30.1,13.2,30.23,NE,38,3.0,5.0,49,0.00,OVC,,0.00,WeatherDisplay:10.37,2013-02-16 00:49:00,
2013-02-15 18:54:00,30.0,13.1,30.23,NE,41,3.0,5.0,49,0.00,OVC,,0.00,WeatherDisplay:10.37,2013-02-16 00:54:00,
2013-02-15 18:59:00,29.7,13.3,30.23,NE,45,1.0,3.0,50,0.00,OVC,,0.00,WeatherDisplay:10.37,2013-02-16 00:59:00,
2013-02-15 19:09:00,29.7,14.2,30.23,NE,48,2.0,3.0,52,0.00,OVC,,0.00,WeatherDisplay:10.37,2013-02-16 01:09:00,
2013-02-15 19:14:00,29.9,14.4,30.23,NE,48,2.0,4.0,52,0.00,OVC,,0.00,WeatherDisplay:10.37,2013-02-16 01:14:00,
2013-02-15 19:19:00,30.1,14.6,30.24,NE,48,1.0,3.0,52,0.00,OVC,,0.00,WeatherDisplay:10.37,2013-02-16 01:19:00,
2013-02-15 19:24:00,30.1,14.6,30.24,NE,48,1.0,3.0,52,0.00,OVC,,0.00,WeatherDisplay:10.37,2013-02-16 01:24:00,
2013-02-15 19:29:00,30.3,14.3,30.25,NE,48,1.0,2.0,51,0.00,OVC,,0.00,WeatherDisplay:10.37,2013-02-16 01:29:00,
2013-02-15 19:39:00,29.9,19.2,30.26,NW,311,5.0,9.0,64,0.00,OVC,,0.00,WeatherDisplay:10.37,2013-02-16 01:39:00,
2013-02-15 19:44:00,29.0,20.7,30.27,NW,315,8.0,10.0,71,0.00,OVC,,0.00,WeatherDisplay:10.37,2013-02-16 01:44:00,
2013-02-15 19:49:00,27.9,22.3,30.27,NW,322,6.0,8.0,79,0.00,OVC,,0.00,WeatherDisplay:10.37,2013-02-16 01:49:00,
2013-02-15 19:54:00,27.4,22.3,30.27,NW,322,5.0,7.0,81,0.00,OVC,,0.00,WeatherDisplay:10.37,2013-02-16 01:54:00,
2013-02-15 19:59:00,27.2,22.7,30.26,NW,326,2.0,6.0,83,0.00,OVC,,0.00,WeatherDisplay:10.37,2013-02-16 01:59:00,
2013-02-15 20:09:00,27.0,23.1,30.26,NNW,327,2.0,3.0,85,0.01,-SN,,0.01,WeatherDisplay:10.37,2013-02-16 02:09:00,
2013-02-15 20:19:00,26.7,23.0,30.26,NNW,327,1.0,2.0,86,0.00,-SN,,0.01,WeatherDisplay:10.37,2013-02-16 02:19:00,
2013-02-15 20:24:00,26.6,23.0,30.25,NNW,327,1.0,3.0,86,0.01,-SN,,0.02,WeatherDisplay:10.37,2013-02-16 02:24:00,
2013-02-15 20:29:00,26.5,22.9,30.25,North,349,2.0,4.0,86,0.00,-SN,,0.02,WeatherDisplay:10.37,2013-02-16 02:29:00,
2013-02-15 20:39:00,26.4,22.8,30.26,ENE,65,3.0,5.0,86,0.00,-SN,,0.03,WeatherDisplay:10.37,2013-02-16 02:39:00,
2013-02-15 20:44:00,26.2,22.9,30.27,NNW,345,5.0,6.0,87,0.00,-SN,,0.03,WeatherDisplay:10.37,2013-02-16 02:44:00,
2013-02-15 20:49:00,26.1,22.7,30.27,NNW,345,2.0,6.0,87,0.00,-SN,,0.03,WeatherDisplay:10.37,2013-02-16 02:49:00,
2013-02-15 20:54:00,26.0,22.7,30.26,NNE,12,2.0,4.0,87,0.00,-SN,,0.03,WeatherDisplay:10.37,2013-02-16 02:54:00,
2013-02-15 20:59:00,25.9,22.5,30.26,NNE,32,2.0,4.0,87,0.00,-SN,,0.03,WeatherDisplay:10.37,2013-02-16 02:59:00,
2013-02-15 21:09:00,25.8,22.8,30.26,NE,48,2.0,4.0,88,0.00,RA,,0.04,WeatherDisplay:10.37,2013-02-16 03:09:00,
2013-02-15 21:14:00,25.9,22.8,30.26,NE,49,2.0,3.0,88,0.00,RA,,0.04,WeatherDisplay:10.37,2013-02-16 03:14:00,
2013-02-15 21:19:00,25.9,22.8,30.25,ENE,63,5.0,6.0,88,0.00,RA,,0.04,WeatherDisplay:10.37,2013-02-16 03:19:00,
2013-02-15 21:29:00,25.7,22.6,30.26,East,81,2.0,5.0,88,0.00,OVC,,0.04,WeatherDisplay:10.37,2013-02-16 03:29:00,
2013-02-15 21:39:00,25.6,22.5,30.26,ENE,78,3.0,5.0,88,0.00,OVC,,0.04,WeatherDisplay:10.37,2013-02-16 03:39:00,
2013-02-15 21:44:00,25.6,22.5,30.26,ENE,75,3.0,6.0,88,0.00,OVC,,0.04,WeatherDisplay:10.37,2013-02-16 03:44:00,
2013-02-15 21:49:00,25.6,22.5,30.27,ENE,58,3.0,7.0,88,0.00,OVC,,0.04,WeatherDisplay:10.37,2013-02-16 03:49:00,
2013-02-15 21:54:00,25.5,22.4,30.27,NE,44,6.0,8.0,88,0.00,OVC,,0.04,WeatherDisplay:10.37,2013-02-16 03:54:00,
2013-02-15 21:59:00,25.3,22.2,30.27,NE,49,6.0,9.0,88,0.00,OVC,,0.04,WeatherDisplay:10.37,2013-02-16 03:59:00,
2013-02-15 22:09:00,25.1,22.0,30.27,NE,49,6.0,9.0,88,0.00,BKN,,0.04,WeatherDisplay:10.37,2013-02-16 04:09:00,
2013-02-15 22:14:00,24.9,21.9,30.27,NE,50,6.0,8.0,88,0.00,BKN,,0.04,WeatherDisplay:10.37,2013-02-16 04:14:00,
2013-02-15 22:19:00,24.8,21.8,30.27,NE,50,5.0,8.0,88,0.00,BKN,,0.04,WeatherDisplay:10.37,2013-02-16 04:19:00,
2013-02-15 22:24:00,24.7,21.7,30.27,NE,54,5.0,8.0,88,0.00,BKN,,0.04,WeatherDisplay:10.37,2013-02-16 04:24:00,
2013-02-15 22:29:00,24.7,21.7,30.27,ENE,60,5.0,8.0,88,0.01,RA,,0.05,WeatherDisplay:10.37,2013-02-16 04:29:00,
2013-02-15 22:34:00,24.6,21.6,30.27,ENE,68,5.0,7.0,88,0.00,RA,,0.05,WeatherDisplay:10.37,2013-02-16 04:34:00,
2013-02-15 22:39:00,24.6,21.6,30.27,ENE,69,3.0,5.0,88,0.00,RA,,0.05,WeatherDisplay:10.37,2013-02-16 04:39:00,
2013-02-15 22:44:00,24.5,21.5,30.27,ENE,59,3.0,7.0,88,0.00,RA,,0.05,WeatherDisplay:10.37,2013-02-16 04:44:00,
2013-02-15 22:49:00,24.4,21.4,30.27,NE,56,3.0,5.0,88,0.00,BKN,,0.05,WeatherDisplay:10.37,2013-02-16 04:49:00,
2013-02-15 22:54:00,24.4,21.4,30.27,ENE,60,5.0,8.0,88,0.00,BKN,,0.05,WeatherDisplay:10.37,2013-02-16 04:54:00,
2013-02-15 22:59:00,24.3,21.3,30.26,ENE,61,3.0,7.0,88,0.00,BKN,,0.05,WeatherDisplay:10.37,2013-02-16 04:59:00,
2013-02-15 23:04:00,24.3,21.3,30.27,ENE,58,3.0,5.0,88,0.00,BKN,,0.05,WeatherDisplay:10.37,2013-02-16 05:04:00,
2013-02-15 23:09:00,24.3,21.3,30.27,NE,56,2.0,5.0,88,0.00,BKN,,0.05,WeatherDisplay:10.37,2013-02-16 05:09:00,
2013-02-15 23:14:00,24.3,21.3,30.27,NE,45,2.0,4.0,88,0.00,BKN,,0.05,WeatherDisplay:10.37,2013-02-16 05:14:00,
2013-02-15 23:19:00,24.4,21.3,30.27,NNE,30,2.0,4.0,88,0.00,BKN,,0.05,WeatherDisplay:10.37,2013-02-16 05:19:00,
2013-02-15 23:24:00,24.3,21.3,30.27,NNE,26,2.0,5.0,88,0.00,BKN,,0.05,WeatherDisplay:10.37,2013-02-16 05:24:00,
2013-02-15 23:29:00,24.2,21.2,30.27,NNE,27,2.0,4.0,88,0.00,BKN,,0.05,WeatherDisplay:10.37,2013-02-16 05:29:00,
2013-02-15 23:34:00,24.1,21.1,30.27,NNE,29,2.0,4.0,88,0.00,BKN,,0.05,WeatherDisplay:10.37,2013-02-16 05:34:00,
2013-02-15 23:39:00,24.0,21.0,30.28,NNE,29,2.0,4.0,88,0.00,BKN,,0.05,WeatherDisplay:10.37,2013-02-16 05:39:00,
2013-02-15 23:44:00,23.9,20.9,30.28,NNE,29,2.0,4.0,88,0.00,BKN,,0.05,WeatherDisplay:10.37,2013-02-16 05:44:00,
2013-02-15 23:49:00,23.9,20.9,30.28,NNE,29,2.0,3.0,88,0.00,BKN,,0.05,WeatherDisplay:10.37,2013-02-16 05:49:00,
2013-02-15 23:59:00,23.9,20.8,30.28,NNE,29,1.0,3.0,88,0.00,RA,,0.00,WeatherDisplay:10.37,2013-02-16 05:59:00,